Time;durP1;ratioP1;P1;durP2;ratioP2;P2;SDS_P1;SDS_P2;PMS_P1;PMS_P2;Temp;Humidity;BMP_temperature;BMP_pressure;BME280_temperature;BME280_humidity;BME280_pressure;Samples;Min_cycle;Max_cycle;Signal;HPM_P1;HPM_P2
2023/12/20 00:01:31;;;;;;;2.38;1.52;;;;;;;6.51;73.63;96669.53;6212953;23;20043;-79
2023/12/20 00:03:59;;;;;;;2.67;2.33;;;;;;;6.51;73.76;96674.72;6212905;23;20024;-79
2023/12/20 00:06:28;;;;;;;1.73;1.63;;;;;;;6.52;73.75;96665.97;6212318;23;20024;-79
2023/12/20 00:08:55;;;;;;;2.10;1.90;;;;;;;6.53;73.44;96659.81;6213807;23;20099;-78
2023/12/20 00:11:23;;;;;;;2.20;1.67;;;;;;;6.54;74.08;96653.69;6215141;23;20024;-79
2023/12/20 00:13:51;;;;;;;2.15;1.70;;;;;;;6.55;73.20;96647.53;6215227;23;20024;-78
2023/12/20 00:16:18;;;;;;;2.08;1.80;;;;;;;6.55;74.14;96639.75;6214638;23;20482;-79
2023/12/20 00:18:46;;;;;;;2.60;1.63;;;;;;;6.55;74.12;96639.75;6214236;23;20021;-79
2023/12/20 00:21:14;;;;;;;2.15;1.95;;;;;;;6.55;74.31;96633.75;6213009;23;20052;-79
2023/12/20 00:23:43;;;;;;;2.00;1.80;;;;;;;6.56;74.36;96625.84;6212988;23;20147;-79
2023/12/20 00:26:10;;;;;;;2.10;1.67;;;;;;;6.56;74.11;96633.59;6212710;23;20020;-79
2023/12/20 00:28:38;;;;;;;2.88;1.80;;;;;;;6.58;73.86;96636.03;6211846;23;20087;-79
2023/12/20 00:31:06;;;;;;;2.22;2.00;;;;;;;6.59;74.53;96630.69;6213114;23;20028;-79
2023/12/20 00:33:34;;;;;;;1.83;1.40;;;;;;;6.59;74.59;96615.16;6212972;23;20020;-78
2023/12/20 00:36:01;;;;;;;1.58;1.45;;;;;;;6.60;74.58;96608.16;6214348;23;20017;-79
2023/12/20 00:38:29;;;;;;;2.60;1.80;;;;;;;6.60;74.54;96606.41;6214729;23;20090;-79
2023/12/20 00:40:58;;;;;;;3.00;1.95;;;;;;;6.60;74.84;96611.59;6215110;23;20020;-79
2023/12/20 00:43:26;;;;;;;2.08;1.48;;;;;;;6.62;74.59;96608.81;6215036;23;20033;-79
2023/12/20 00:45:55;;;;;;;1.48;1.38;;;;;;;6.63;75.33;96607.06;6214800;23;20407;-79
2023/12/20 00:48:22;;;;;;;2.28;1.30;;;;;;;6.63;75.61;96614.84;6213898;23;20466;-79
2023/12/20 00:50:50;;;;;;;1.77;1.40;;;;;;;6.64;75.79;96606.09;6215450;23;20020;-78
2023/12/20 00:53:18;;;;;;;1.63;1.52;;;;;;;6.65;76.07;96613.72;6214877;23;20529;-79
2023/12/20 00:55:46;;;;;;;1.67;1.58;;;;;;;6.66;75.68;96622.31;6215090;23;20391;-79
2023/12/20 00:58:15;;;;;;;2.00;1.60;;;;;;;6.66;75.27;96609.34;6213323;23;20532;-79
2023/12/20 01:00:43;;;;;;;1.40;1.30;;;;;;;6.67;76.04;96610.94;6212528;23;20458;-79
2023/12/20 01:03:11;;;;;;;1.42;1.33;;;;;;;6.69;76.63;96598.66;6212876;23;20027;-79
2023/12/20 01:05:39;;;;;;;1.65;1.20;;;;;;;6.69;76.47;96596.88;6212472;23;20027;-79
2023/12/20 01:08:07;;;;;;;2.60;1.33;;;;;;;6.70;76.75;96595.09;6211823;23;20016;-79
2023/12/20 01:10:35;;;;;;;1.30;1.20;;;;;;;6.71;77.58;96591.53;6212573;23;20075;-79
2023/12/20 01:13:02;;;;;;;1.17;1.08;;;;;;;6.70;76.90;96595.91;6212570;23;20359;-79
2023/12/20 01:15:31;;;;;;;2.55;1.20;;;;;;;6.70;77.62;96601.09;6214264;23;20025;-79
2023/12/20 01:17:59;;;;;;;1.40;1.30;;;;;;;6.73;77.76;96587.00;6214196;23;20077;-79
2023/12/20 01:20:27;;;;;;;1.80;1.30;;;;;;;6.71;77.72;96587.19;6215509;23;20035;-79
2023/12/20 01:22:54;;;;;;;4.05;1.42;;;;;;;6.71;77.76;96601.91;6215014;23;20082;-79
2023/12/20 01:25:22;;;;;;;3.65;1.30;;;;;;;6.70;77.42;96601.09;6216878;23;20028;-79
2023/12/20 01:27:50;;;;;;;1.35;1.25;;;;;;;6.71;78.23;96607.91;6216814;23;20031;-79
2023/12/20 01:30:17;;;;;;;1.27;1.17;;;;;;;6.70;78.00;96611.47;6216353;23;20095;-78
2023/12/20 01:32:46;;;;;;;1.70;1.50;;;;;;;6.70;77.98;96611.47;6216999;23;20048;-79
2023/12/20 01:35:14;;;;;;;2.08;1.25;;;;;;;6.71;78.42;96609.66;6216020;23;20021;-79
2023/12/20 01:37:42;;;;;;;1.73;1.38;;;;;;;6.72;78.14;96612.13;6215787;23;20020;-79
2023/12/20 01:40:11;;;;;;;1.23;1.02;;;;;;;6.70;78.14;96615.84;6216170;23;20032;-79
2023/12/20 01:42:39;;;;;;;1.20;1.10;;;;;;;6.70;77.95;96606.28;6216316;23;20035;-79
2023/12/20 01:45:07;;;;;;;1.73;1.33;;;;;;;6.71;78.68;96605.31;6216720;23;20051;-79
2023/12/20 01:47:35;;;;;;;1.52;1.20;;;;;;;6.72;78.94;96608.72;6216330;23;20075;-79
2023/12/20 01:50:07;;;;;;;2.53;1.20;;;;;;;6.73;79.97;96610.31;6215640;23;20020;-79
2023/12/20 01:52:36;;;;;;;1.20;1.10;;;;;;;6.75;79.99;96623.94;6216904;23;20024;-79
2023/12/20 01:55:11;;;;;;;1.10;1.00;;;;;;;6.75;80.21;96629.13;6216576;23;20082;-79
2023/12/20 01:57:38;;;;;;;1.95;1.33;;;;;;;6.75;80.22;96621.34;6216127;23;20055;-79
2023/12/20 02:00:09;;;;;;;1.10;1.00;;;;;;;6.70;79.25;96631.38;6215937;23;20090;-79
2023/12/20 02:02:39;;;;;;;0.98;0.98;;;;;;;6.67;79.83;96631.69;6216313;23;20025;-79
2023/12/20 02:05:09;;;;;;;1.73;1.50;;;;;;;6.68;80.46;96617.78;6216696;23;20028;-77
2023/12/20 02:07:37;;;;;;;1.05;0.98;;;;;;;6.68;80.59;96626.34;6216321;23;20020;-79
2023/12/20 02:10:05;;;;;;;1.10;1.00;;;;;;;6.68;80.83;96622.97;6215891;23;20052;-79
2023/12/20 02:12:33;;;;;;;2.03;1.50;;;;;;;6.69;80.87;96627.16;6216166;23;20324;-79
2023/12/20 02:15:00;;;;;;;1.35;1.23;;;;;;;6.69;80.38;96627.16;6216202;23;20029;-79
2023/12/20 02:17:28;;;;;;;3.38;1.55;;;;;;;6.68;80.77;96617.78;6215777;23;20024;-79
2023/12/20 02:19:56;;;;;;;1.83;1.30;;;;;;;6.68;80.25;96622.97;6215930;23;20347;-79
2023/12/20 02:22:25;;;;;;;1.13;1.02;;;;;;;6.66;80.21;96614.53;6216742;23;20021;-79
2023/12/20 02:24:53;;;;;;;2.38;1.23;;;;;;;6.65;80.64;96611.13;6216212;23;20028;-79
2023/12/20 02:27:21;;;;;;;0.95;0.95;;;;;;;6.65;80.67;96615.47;6215944;23;20415;-79
2023/12/20 02:29:50;;;;;;;1.58;1.27;;;;;;;6.60;80.82;96609.00;6215624;23;20463;-79
2023/12/20 02:32:18;;;;;;;1.77;1.20;;;;;;;6.63;80.46;96609.66;6216050;23;20058;-79
2023/12/20 02:34:47;;;;;;;1.30;0.98;;;;;;;6.60;80.82;96605.56;6215933;23;20021;-79
2023/12/20 02:37:15;;;;;;;2.85;1.02;;;;;;;6.60;81.22;96598.63;6216573;23;20020;-79
2023/12/20 02:39:45;;;;;;;1.48;1.23;;;;;;;6.64;81.83;96598.31;6215455;23;20027;-79
2023/12/20 02:42:12;;;;;;;2.28;1.35;;;;;;;6.65;81.44;96607.69;6216468;23;20363;-79
2023/12/20 02:44:40;;;;;;;1.73;0.98;;;;;;;6.64;81.28;96603.50;6216224;23;20020;-79
2023/12/20 02:47:07;;;;;;;1.10;1.00;;;;;;;6.63;80.89;96605.28;6216036;23;20362;-79
2023/12/20 02:49:35;;;;;;;1.20;1.10;;;;;;;6.60;81.06;96600.41;6215469;23;20100;-79
2023/12/20 02:52:03;;;;;;;1.20;1.10;;;;;;;6.59;80.92;96609.16;6216308;23;20063;-78
2023/12/20 02:54:31;;;;;;;2.03;1.17;;;;;;;6.58;81.20;96607.50;6215661;23;20035;-79
2023/12/20 02:57:00;;;;;;;1.45;1.20;;;;;;;6.57;81.44;96609.31;6215370;23;20027;-79
2023/12/20 02:59:27;;;;;;;1.13;0.95;;;;;;;6.56;81.11;96605.09;6215623;23;20048;-79
2023/12/20 03:01:55;;;;;;;1.23;1.13;;;;;;;6.53;80.97;96613.16;6216497;23;20029;-79
2023/12/20 03:04:22;;;;;;;0.85;0.85;;;;;;;6.52;81.24;96608.16;6215303;23;20021;-79
2023/12/20 03:06:50;;;;;;;0.82;0.82;;;;;;;6.50;81.29;96600.53;6215387;23;20020;-78
2023/12/20 03:09:18;;;;;;;1.30;1.20;;;;;;;6.49;81.83;96598.91;6215174;23;20051;-79
2023/12/20 03:11:46;;;;;;;3.08;1.17;;;;;;;6.51;82.09;96601.34;6215876;23;20028;-79
2023/12/20 03:14:15;;;;;;;2.47;1.20;;;;;;;6.49;82.26;96598.09;6215652;23;20471;-79
2023/12/20 03:16:42;;;;;;;2.58;0.98;;;;;;;6.49;82.52;96598.91;6215721;23;20083;-79
2023/12/20 03:19:10;;;;;;;0.77;0.77;;;;;;;6.47;82.25;96606.03;6215110;23;20016;-79
2023/12/20 03:21:38;;;;;;;1.65;1.23;;;;;;;6.48;82.70;96609.44;6215816;23;20355;-79
2023/12/20 03:24:06;;;;;;;1.30;1.20;;;;;;;6.48;82.98;96601.66;6215236;23;20023;-79
2023/12/20 03:26:33;;;;;;;1.10;1.10;;;;;;;6.48;83.04;96602.47;6215571;23;20346;-78
2023/12/20 03:29:01;;;;;;;1.20;1.10;;;;;;;6.49;82.90;96613.63;6215288;23;20017;-79
2023/12/20 03:31:30;;;;;;;1.30;1.10;;;;;;;6.48;82.92;96607.66;6216330;23;20359;-79
2023/12/20 03:33:57;;;;;;;1.50;1.23;;;;;;;6.47;82.94;96607.78;6215952;23;20433;-79
2023/12/20 03:36:25;;;;;;;1.05;0.90;;;;;;;6.45;82.80;96613.16;6215005;23;20405;-79
2023/12/20 03:38:53;;;;;;;1.30;1.00;;;;;;;6.43;82.74;96609.91;6214830;23;20048;-79
2023/12/20 03:41:20;;;;;;;1.00;0.95;;;;;;;6.44;82.89;96613.31;6215250;23;20052;-79
2023/12/20 03:43:48;;;;;;;1.95;1.13;;;;;;;6.42;82.65;96613.44;6215276;23;20655;-79
2023/12/20 03:46:16;;;;;;;0.85;0.85;;;;;;;6.39;82.77;96613.78;6214839;23;20156;-79
2023/12/20 03:48:45;;;;;;;1.40;1.02;;;;;;;6.37;82.73;96615.69;6214704;23;20071;-79
2023/12/20 03:51:12;;;;;;;1.17;1.08;;;;;;;6.33;82.51;96620.38;6215433;23;20017;-79
2023/12/20 03:53:40;;;;;;;0.60;0.60;;;;;;;6.31;82.65;96621.50;6215283;23;20024;-79
2023/12/20 03:56:07;;;;;;;0.75;0.70;;;;;;;6.29;82.25;96615.66;6215018;23;20024;-80
2023/12/20 03:58:34;;;;;;;1.00;0.73;;;;;;;6.27;81.99;96620.19;6215044;23;20016;-78
2023/12/20 04:01:02;;;;;;;0.80;0.80;;;;;;;6.24;81.89;96612.72;6215737;23;20025;-79
2023/12/20 04:03:30;;;;;;;0.93;0.82;;;;;;;6.24;82.46;96615.31;6215467;23;20542;-79
2023/12/20 04:05:59;;;;;;;0.43;0.30;;;;;;;6.23;81.86;96619.69;6215349;23;20025;-79
2023/12/20 04:08:27;;;;;;;0.40;0.40;;;;;;;6.24;81.89;96625.69;6220495;23;20068;-79
2023/12/20 04:10:54;;;;;;;0.75;0.75;;;;;;;6.19;81.87;96619.19;6223445;23;20024;-79
2023/12/20 04:13:22;;;;;;;0.60;0.60;;;;;;;6.20;81.48;96627.75;6225364;23;20083;-79
2023/12/20 04:15:51;;;;;;;0.50;0.50;;;;;;;6.19;81.51;96628.72;6217527;23;20048;-79
2023/12/20 04:18:19;;;;;;;1.48;0.40;;;;;;;6.17;81.44;96633.25;6214640;23;20016;-79
2023/12/20 04:20:47;;;;;;;1.13;0.60;;;;;;;6.15;81.85;96638.56;6215496;23;20029;-79
2023/12/20 04:23:16;;;;;;;1.05;0.80;;;;;;;6.14;82.20;96642.16;6215589;23;20447;-79
2023/12/20 04:25:43;;;;;;;1.00;0.82;;;;;;;6.13;81.93;96640.50;6215233;23;20021;-79
2023/12/20 04:28:11;;;;;;;0.60;0.60;;;;;;;6.14;82.12;96652.50;6214889;23;20066;-79
2023/12/20 04:30:38;;;;;;;0.40;0.40;;;;;;;6.15;82.32;96642.94;6215428;23;20522;-79
2023/12/20 04:33:06;;;;;;;0.40;0.40;;;;;;;6.14;81.71;96649.91;6215414;23;20016;-79
2023/12/20 04:35:34;;;;;;;0.60;0.60;;;;;;;6.14;81.59;96644.72;6215341;23;20383;-79
2023/12/20 04:38:01;;;;;;;1.17;0.45;;;;;;;6.14;81.84;96652.50;6214564;23;20024;-79
2023/12/20 04:40:30;;;;;;;0.40;0.30;;;;;;;6.13;81.71;96656.03;6215208;23;20470;-79
2023/12/20 04:42:58;;;;;;;0.63;0.45;;;;;;;6.12;81.37;96653.59;6215526;23;20079;-79
2023/12/20 04:45:25;;;;;;;0.52;0.32;;;;;;;6.12;81.16;96641.47;6215404;23;20099;-79
2023/12/20 04:47:53;;;;;;;0.70;0.40;;;;;;;6.09;80.94;96644.34;6214722;23;20025;-79
2023/12/20 04:50:21;;;;;;;0.50;0.50;;;;;;;6.09;81.18;96648.72;6214838;23;20087;-79
2023/12/20 04:52:49;;;;;;;0.40;0.40;;;;;;;6.11;81.63;96641.63;6215458;23;20036;-79
2023/12/20 04:55:16;;;;;;;0.38;0.38;;;;;;;6.09;81.41;96649.53;6215052;23;20024;-79
2023/12/20 04:57:45;;;;;;;0.25;0.25;;;;;;;6.06;80.71;96660.22;6214797;23;20025;-79
2023/12/20 05:00:15;;;;;;;0.68;0.45;;;;;;;6.06;81.19;96667.97;6214291;23;20152;-79
2023/12/20 05:02:43;;;;;;;0.30;0.30;;;;;;;6.06;80.81;96669.78;6215138;23;20021;-79
2023/12/20 05:05:10;;;;;;;0.40;0.30;;;;;;;6.02;80.47;96669.25;6214757;23;20482;-79
2023/12/20 05:07:38;;;;;;;0.30;0.30;;;;;;;5.99;80.41;96677.31;6214627;23;20426;-79
2023/12/20 05:10:08;;;;;;;0.40;0.40;;;;;;;5.97;80.88;96685.25;6214642;23;20074;-79
2023/12/20 05:12:35;;;;;;;0.40;0.40;;;;;;;5.97;81.42;96671.47;6214617;23;20020;-79
2023/12/20 05:15:06;;;;;;;0.50;0.50;;;;;;;5.95;81.22;96688.94;6215302;23;20036;-79
2023/12/20 05:17:34;;;;;;;0.30;0.30;;;;;;;5.95;81.10;96683.78;6215101;23;20020;-79
2023/12/20 05:20:02;;;;;;;1.17;0.63;;;;;;;5.96;81.87;96691.38;6214290;23;20067;-79
2023/12/20 05:22:31;;;;;;;0.50;0.30;;;;;;;5.97;81.92;96703.38;6214964;23;20027;-79
2023/12/20 05:24:58;;;;;;;1.13;0.93;;;;;;;5.95;81.56;96681.19;6215355;23;20025;-79
2023/12/20 05:27:26;;;;;;;1.60;0.52;;;;;;;5.94;82.03;96680.34;6214360;23;20024;-78
2023/12/20 05:29:57;;;;;;;0.45;0.45;;;;;;;5.90;81.71;96683.34;6214648;23;20084;-79
2023/12/20 05:32:26;;;;;;;0.63;0.50;;;;;;;5.87;82.04;96689.66;6215277;23;20059;-79
2023/12/20 05:34:54;;;;;;;0.95;0.57;;;;;;;5.87;82.42;96686.25;6214875;23;20024;-78
2023/12/20 05:37:21;;;;;;;0.30;0.30;;;;;;;5.87;81.89;96697.41;6214852;23;20024;-79
2023/12/20 05:39:49;;;;;;;0.30;0.30;;;;;;;5.87;81.88;96709.56;6214196;23;20017;-79
2023/12/20 05:42:17;;;;;;;0.70;0.32;;;;;;;5.86;81.56;96702.72;6214808;23;20040;-79
2023/12/20 05:44:43;;;;;;;0.55;0.55;;;;;;;5.84;81.32;96704.66;6215006;23;20421;-79
2023/12/20 05:47:11;;;;;;;4.03;2.45;;;;;;;5.86;82.18;96716.50;6214485;23;20028;-79
2023/12/20 05:49:40;;;;;;;14.82;9.05;;;;;;;5.89;83.10;96713.63;6214601;23;20021;-79
2023/12/20 05:52:07;;;;;;;3.00;1.70;;;;;;;5.90;82.39;96720.44;6215039;23;20021;-78
2023/12/20 05:54:35;;;;;;;2.38;1.20;;;;;;;5.91;81.80;96718.66;6215088;23;20102;-78
2023/12/20 05:57:03;;;;;;;1.15;0.85;;;;;;;5.92;81.79;96720.25;6214633;23;20029;-79
2023/12/20 05:59:30;;;;;;;0.82;0.75;;;;;;;5.94;82.56;96724.34;6214455;23;20024;-79
2023/12/20 06:01:58;;;;;;;1.60;0.98;;;;;;;5.97;83.51;96720.69;6215121;23;20044;-78
2023/12/20 06:04:25;;;;;;;0.68;0.60;;;;;;;6.02;83.56;96728.00;6215043;23;20467;-79
2023/12/20 06:06:54;;;;;;;0.73;0.73;;;;;;;6.01;83.71;96729.75;6214763;23;20025;-79
2023/12/20 06:09:22;;;;;;;1.00;0.80;;;;;;;6.00;83.19;96742.88;6214511;23;20390;-79
2023/12/20 06:11:50;;;;;;;0.85;0.80;;;;;;;5.99;82.38;96742.03;6216635;23;20100;-79
2023/12/20 06:14:18;;;;;;;1.00;0.80;;;;;;;5.99;82.81;96736.84;6216953;23;20070;-79
2023/12/20 06:16:46;;;;;;;1.30;0.73;;;;;;;6.01;83.30;96740.09;6216891;23;20020;-79
2023/12/20 06:19:14;;;;;;;2.08;1.35;;;;;;;6.01;83.97;96750.47;6215979;23;20059;-79
2023/12/20 06:21:41;;;;;;;0.80;0.80;;;;;;;6.02;83.63;96738.34;6216734;23;20064;-79
2023/12/20 06:24:13;;;;;;;1.15;1.05;;;;;;;6.01;83.62;96750.47;6216768;23;20021;-79
2023/12/20 06:26:40;;;;;;;0.85;0.85;;;;;;;6.01;83.69;96739.31;6216378;23;20027;-78
2023/12/20 06:29:08;;;;;;;0.95;0.95;;;;;;;6.00;83.66;96748.84;6216065;23;20027;-78
2023/12/20 06:31:35;;;;;;;1.52;1.10;;;;;;;6.01;83.35;96745.28;6216944;23;20467;-79
2023/12/20 06:34:03;;;;;;;1.00;1.00;;;;;;;6.02;83.00;96743.53;6216387;23;20028;-78
2023/12/20 06:36:31;;;;;;;1.80;1.48;;;;;;;6.03;83.54;96737.38;6216038;23;20025;-79
2023/12/20 06:38:58;;;;;;;1.73;1.52;;;;;;;6.04;84.10;96739.81;6215142;23;20025;-77
2023/12/20 06:41:28;;;;;;;1.58;1.42;;;;;;;6.06;83.82;96747.47;6215719;23;20528;-79
2023/12/20 06:43:56;;;;;;;1.35;1.10;;;;;;;6.05;83.87;96749.22;6218622;23;20029;-79
2023/12/20 06:46:24;;;;;;;1.30;1.20;;;;;;;6.06;84.19;96752.63;6215400;23;20052;-79
2023/12/20 06:48:51;;;;;;;1.02;1.02;;;;;;;6.05;83.70;96751.81;6215201;23;20021;-79
2023/12/20 06:51:20;;;;;;;1.27;1.00;;;;;;;6.06;83.98;96757.81;6216242;23;20091;-79
2023/12/20 06:53:48;;;;;;;1.17;1.08;;;;;;;6.06;83.90;96763.00;6215944;23;20083;-78
2023/12/20 06:56:16;;;;;;;1.23;1.08;;;;;;;6.07;84.74;96770.59;6216067;23;20485;-79
2023/12/20 06:58:47;;;;;;;1.38;1.27;;;;;;;6.09;84.77;96765.28;6215826;23;20455;-79
2023/12/20 07:01:16;;;;;;;0.90;0.90;;;;;;;6.10;84.66;96765.13;6216574;23;20027;-79
2023/12/20 07:03:44;;;;;;;1.42;1.30;;;;;;;6.11;84.56;96761.56;6216332;23;20025;-78
2023/12/20 07:06:12;;;;;;;1.20;1.10;;;;;;;6.11;84.59;96766.75;6216270;23;20030;-78
2023/12/20 07:08:40;;;;;;;0.90;0.80;;;;;;;6.11;84.14;96773.72;6215821;23;20536;-78
2023/12/20 07:11:07;;;;;;;0.88;0.85;;;;;;;6.10;84.33;96766.88;6216270;23;20024;-79
2023/12/20 07:13:35;;;;;;;1.10;1.00;;;;;;;6.11;84.35;96777.09;6216455;23;20029;-79
2023/12/20 07:16:05;;;;;;;1.40;1.30;;;;;;;6.13;83.98;96788.13;6216181;23;20024;-79
2023/12/20 07:18:32;;;;;;;1.30;1.20;;;;;;;6.12;83.79;96788.28;6215565;23;20021;-78
2023/12/20 07:21:00;;;;;;;1.48;1.33;;;;;;;6.12;83.90;96793.44;6216533;23;20017;-79
2023/12/20 07:23:27;;;;;;;1.45;1.35;;;;;;;6.10;83.89;96792.78;6216428;23;20029;-79
2023/12/20 07:25:55;;;;;;;1.67;1.58;;;;;;;6.08;84.09;96792.94;6210627;23;20409;-78
2023/12/20 07:28:22;;;;;;;1.95;1.75;;;;;;;6.05;83.89;96803.59;6214744;23;20025;-78
2023/12/20 07:30:50;;;;;;;1.70;1.60;;;;;;;6.03;84.25;96799.53;6239651;22;20009;-77
2023/12/20 07:33:19;;;;;;;1.80;1.70;;;;;;;6.00;84.77;96800.66;6240308;23;20632;-76
2023/12/20 07:35:47;;;;;;;1.98;1.77;;;;;;;6.01;85.10;96801.44;6232401;22;20098;-77
2023/12/20 07:38:15;;;;;;;1.70;1.60;;;;;;;6.03;85.04;96805.50;6214597;23;20028;-78
2023/12/20 07:40:42;;;;;;;1.75;1.65;;;;;;;6.07;85.00;96813.81;6215382;23;20119;-78
2023/12/20 07:43:10;;;;;;;1.58;1.48;;;;;;;6.07;85.23;96812.03;6215465;23;20032;-78
2023/12/20 07:45:38;;;;;;;1.60;1.50;;;;;;;6.08;85.07;96816.25;6216282;23;20067;-78
2023/12/20 07:48:07;;;;;;;1.77;1.67;;;;;;;6.07;85.03;96817.22;6214977;23;20028;-78
2023/12/20 07:50:36;;;;;;;1.75;1.65;;;;;;;6.06;85.09;96815.59;6216364;23;20016;-79
2023/12/20 07:53:04;;;;;;;2.15;2.00;;;;;;;6.08;85.26;96810.25;6222624;23;20072;-78
2023/12/20 07:55:32;;;;;;;2.22;1.80;;;;;;;6.10;85.54;96819.53;6229057;23;20028;-78
2023/12/20 07:58:00;;;;;;;2.05;1.95;;;;;;;6.09;84.87;96820.47;6228100;23;20044;-77
2023/12/20 08:00:27;;;;;;;2.10;1.90;;;;;;;6.06;84.61;96820.78;6220958;23;20104;-78
2023/12/20 08:02:55;;;;;;;2.40;2.25;;;;;;;6.06;84.98;96823.38;6218387;23;20021;-79
2023/12/20 08:05:23;;;;;;;2.53;2.30;;;;;;;6.05;85.13;96828.69;6216960;23;20048;-78
2023/12/20 08:07:52;;;;;;;2.60;2.40;;;;;;;6.04;85.06;96827.88;6215271;23;20103;-78
2023/12/20 08:10:19;;;;;;;2.33;2.20;;;;;;;6.03;nan;96823.63;6215045;23;20398;-77
2023/12/20 08:12:47;;;;;;;3.05;2.85;;;;;;;6.03;84.86;96825.41;6215612;23;20495;-77
2023/12/20 08:15:15;;;;;;;3.60;2.95;;;;;;;6.02;85.02;96829.78;6215394;23;20028;-77
2023/12/20 08:17:43;;;;;;;3.08;2.88;;;;;;;6.03;84.96;96834.00;6215134;23;20024;-78
2023/12/20 08:20:11;;;;;;;3.00;2.80;;;;;;;6.05;84.96;96834.66;6214637;23;20051;-77
2023/12/20 08:22:46;;;;;;;3.22;3.00;;;;;;;6.07;84.82;96832.75;6215269;23;20096;-76
2023/12/20 08:25:15;;;;;;;3.58;2.78;;;;;;;6.09;85.53;96832.59;6215373;23;20024;-77
2023/12/20 08:27:43;;;;;;;3.20;2.88;;;;;;;6.11;85.74;96828.91;6214934;23;20056;-77
2023/12/20 08:30:12;;;;;;;2.85;2.65;;;;;;;6.12;85.12;96830.53;6214303;23;20701;-78
2023/12/20 08:32:40;;;;;;;2.95;2.75;;;;;;;6.13;84.64;96842.53;6215035;23;20024;-77
2023/12/20 08:35:08;;;;;;;4.45;3.42;;;;;;;6.13;84.84;96852.88;6215364;23;20024;-78
2023/12/20 08:37:36;;;;;;;3.55;3.15;;;;;;;6.08;84.85;96847.34;6214568;23;20024;-77
2023/12/20 08:40:05;;;;;;;3.47;3.17;;;;;;;6.10;85.62;96848.00;6215399;23;20028;-77
2023/12/20 08:42:34;;;;;;;3.50;3.20;;;;;;;6.12;84.93;96861.63;6217290;23;20027;-78
2023/12/20 08:45:04;;;;;;;3.50;3.20;;;;;;;6.08;85.04;96862.88;6216714;23;20025;-77
2023/12/20 08:47:31;;;;;;;3.90;3.60;;;;;;;6.05;85.14;96863.16;6215756;23;20074;-78
2023/12/20 08:49:59;;;;;;;4.10;3.70;;;;;;;6.04;85.74;96858.94;6214740;23;20108;-78
2023/12/20 08:52:29;;;;;;;3.63;3.25;;;;;;;6.06;86.40;96859.63;6215203;23;20028;-77
2023/12/20 08:54:56;;;;;;;3.65;3.35;;;;;;;6.11;86.38;96854.00;6215888;23;20025;-77
2023/12/20 08:57:25;;;;;;;3.08;2.78;;;;;;;6.12;86.04;96853.84;6215472;23;20017;-77
2023/12/20 08:59:54;;;;;;;3.05;2.85;;;;;;;6.14;85.85;96859.72;6214812;23;20021;-78
2023/12/20 09:02:21;;;;;;;3.55;3.25;;;;;;;6.18;85.98;96857.63;6215398;23;20017;-77
2023/12/20 09:04:49;;;;;;;2.88;2.67;;;;;;;6.22;85.74;96860.72;6215786;23;20087;-78
2023/12/20 09:07:24;;;;;;;2.83;2.63;;;;;;;6.22;86.26;96858.16;6214996;23;20051;-77
2023/12/20 09:09:52;;;;;;;4.78;3.10;;;;;;;6.19;84.90;96861.84;6214467;23;20051;-78
2023/12/20 09:12:20;;;;;;;3.03;2.78;;;;;;;6.15;84.17;96856.13;6215732;23;20044;-78
2023/12/20 09:14:49;;;;;;;3.20;2.70;;;;;;;6.15;84.90;96856.13;6215254;23;20032;-78
2023/12/20 09:17:18;;;;;;;3.40;3.10;;;;;;;6.18;85.20;96860.22;6215640;23;20032;-77
2023/12/20 09:19:46;;;;;;;3.50;3.20;;;;;;;6.19;84.93;96867.84;6216273;23;20071;-79
2023/12/20 09:22:14;;;;;;;3.35;3.05;;;;;;;6.18;83.80;96866.19;6229576;23;20040;-79
2023/12/20 09:24:41;;;;;;;5.50;3.10;;;;;;;6.18;83.68;96880.94;6231628;23;20032;-78
2023/12/20 09:27:09;;;;;;;4.22;3.83;;;;;;;6.19;84.36;96885.97;6217742;23;20358;-79
2023/12/20 09:29:37;;;;;;;3.83;3.40;;;;;;;6.21;84.33;96885.00;6215161;23;20402;-78
2023/12/20 09:32:05;;;;;;;4.68;3.38;;;;;;;6.19;84.44;96880.78;6215161;23;20410;-79
2023/12/20 09:34:34;;;;;;;3.95;3.50;;;;;;;6.23;83.99;96878.72;6215997;23;20024;-79
2023/12/20 09:37:02;;;;;;;3.80;3.42;;;;;;;6.24;83.95;96882.13;6215219;23;20024;-79
2023/12/20 09:39:31;;;;;;;3.88;3.58;;;;;;;6.25;84.45;96871.59;6215258;23;20411;-78
2023/12/20 09:42:02;;;;;;;4.15;3.70;;;;;;;6.28;84.29;96875.69;6214979;23;20390;-77
2023/12/20 09:44:31;;;;;;;3.42;3.13;;;;;;;6.31;84.37;96883.16;6216648;23;20020;-78
2023/12/20 09:46:58;;;;;;;3.88;3.47;;;;;;;6.34;84.34;96872.50;6217566;23;20463;-79
2023/12/20 09:49:28;;;;;;;3.95;3.55;;;;;;;6.35;82.73;96866.34;6216948;23;20074;-78
2023/12/20 09:51:57;;;;;;;3.22;2.70;;;;;;;6.33;82.14;96869.09;6217826;23;20342;-78
2023/12/20 09:54:27;;;;;;;3.55;2.70;;;;;;;6.31;80.74;96872.78;6217571;23;20027;-79
2023/12/20 09:56:55;;;;;;;4.47;2.80;;;;;;;6.27;80.85;96864.50;6217504;23;20024;-78
2023/12/20 09:59:23;;;;;;;5.68;3.00;;;;;;;6.25;80.29;96865.59;6217300;23;20021;-78
2023/12/20 10:01:52;;;;;;;4.35;3.03;;;;;;;6.23;80.56;96870.13;6217459;23;20075;-79
2023/12/20 10:04:23;;;;;;;;;;;;;;;6.23;79.78;96880.47;6218127;23;20477;-77
2023/12/20 10:09:25;;;;;;;2.92;2.72;;;;;;;6.05;79.15;96870.91;6218103;22;20012;-80
2023/12/20 10:11:57;;;;;;;2.53;2.17;;;;;;;6.00;78.61;96873.16;6218289;23;20036;-78
2023/12/20 10:14:25;;;;;;;4.03;2.83;;;;;;;5.99;79.21;96876.69;6219094;23;20021;-79
2023/12/20 10:16:55;;;;;;;3.88;2.42;;;;;;;5.99;79.22;96876.69;6218205;23;20028;-80
2023/12/20 10:19:23;;;;;;;3.90;2.90;;;;;;;5.99;79.59;96876.69;6218207;23;20081;-80
2023/12/20 10:21:52;;;;;;;3.25;2.40;;;;;;;5.97;78.89;96869.09;6218598;23;20021;-79
2023/12/20 10:24:21;;;;;;;3.25;2.75;;;;;;;5.94;78.46;96863.34;6219416;23;20100;-79
2023/12/20 10:27:04;;;;;;;4.32;3.03;;;;;;;5.89;77.81;96855.19;6218281;23;20024;-80
2023/12/20 10:29:36;;;;;;;2.47;2.22;;;;;;;5.93;79.62;96861.72;6217992;23;20075;-80
2023/12/20 10:32:24;;;;;;;3.10;2.50;;;;;;;6.05;79.81;96855.38;6218122;23;20027;-79
2023/12/20 10:34:54;;;;;;;3.50;2.55;;;;;;;6.10;78.32;96866.13;6218408;23;20021;-80
2023/12/20 10:37:23;;;;;;;3.97;2.83;;;;;;;6.11;77.79;96857.41;6218400;23;20016;-79
2023/12/20 10:39:56;;;;;;;4.75;2.40;;;;;;;6.14;78.70;96849.34;6218088;23;20403;-78
2023/12/20 10:42:28;;;;;;;4.25;2.65;;;;;;;6.15;77.87;96865.69;6218093;23;20096;-79
2023/12/20 10:44:58;;;;;;;6.10;2.83;;;;;;;6.07;76.97;96861.22;6218113;23;20095;-80
2023/12/20 10:47:27;;;;;;;3.97;2.60;;;;;;;6.07;76.93;96863.81;6217793;23;20016;-79
2023/12/20 10:49:57;;;;;;;3.10;2.20;;;;;;;6.10;76.72;96863.56;6218225;23;20021;-79
2023/12/20 10:52:26;;;;;;;7.30;3.30;;;;;;;6.14;76.87;96864.88;6218158;23;20067;-80
2023/12/20 10:54:55;;;;;;;4.90;2.28;;;;;;;6.14;76.44;96858.88;6218451;23;20074;-79
2023/12/20 10:57:27;;;;;;;4.45;2.30;;;;;;;6.14;76.48;96858.88;6217224;23;20044;-79
2023/12/20 11:00:03;;;;;;;3.38;2.47;;;;;;;6.14;75.79;96849.34;6217467;23;20091;-79
2023/12/20 11:02:35;;;;;;;4.13;2.15;;;;;;;6.13;75.91;96842.53;6217308;23;20022;-79
2023/12/20 11:05:11;;;;;;;4.25;2.15;;;;;;;6.13;75.46;96847.69;6217589;23;20036;-80
2023/12/20 11:07:48;;;;;;;5.22;2.15;;;;;;;6.14;74.88;96838.97;6195713;23;20340;-80
2023/12/20 11:10:21;;;;;;;4.50;2.00;;;;;;;6.17;75.49;96840.47;6217370;23;20020;-80
2023/12/20 11:12:53;;;;;;;;;;;;;;;6.18;74.06;96839.47;6217850;23;20017;-80
2023/12/20 11:15:24;;;;;;;4.03;2.50;;;;;;;6.14;74.99;96841.56;6217473;23;19984;-79
2023/12/20 11:17:56;;;;;;;3.78;2.30;;;;;;;6.15;75.93;96842.38;6216711;23;20454;-79
2023/12/20 11:20:34;;;;;;;6.20;2.75;;;;;;;6.15;75.53;96840.59;6217688;23;20016;-79
2023/12/20 11:23:03;;;;;;;5.65;1.98;;;;;;;6.12;74.87;96835.72;6217057;23;20022;-79
2023/12/20 11:25:48;;;;;;;4.35;2.00;;;;;;;6.12;73.82;96827.97;6217713;23;20017;-80
2023/12/20 11:28:17;;;;;;;5.32;2.20;;;;;;;6.12;74.43;96827.97;6218111;23;20020;-79
2023/12/20 11:30:52;;;;;;;3.63;2.42;;;;;;;6.08;72.99;96834.38;6217969;23;20017;-79
2023/12/20 11:33:26;;;;;;;3.35;2.25;;;;;;;6.05;73.48;96824.31;6218296;23;20021;-80
2023/12/20 11:35:59;;;;;;;5.80;2.17;;;;;;;6.07;74.42;96830.16;6217733;23;20023;-79
2023/12/20 11:38:28;;;;;;;6.65;2.00;;;;;;;6.07;75.66;96826.75;6216900;23;20462;-79
2023/12/20 11:40:57;;;;;;;5.47;2.17;;;;;;;6.10;75.32;96822.09;6217794;23;20071;-79
2023/12/20 11:43:33;;;;;;;6.05;2.00;;;;;;;6.10;74.72;96813.50;6217782;23;20056;-80
2023/12/20 11:46:07;;;;;;;2.50;1.33;;;;;;;6.12;73.96;96820.19;6217998;23;20451;-80
2023/12/20 11:48:39;;;;;;;3.53;1.33;;;;;;;6.12;73.24;96816.75;6218004;23;20029;-79
2023/12/20 11:51:12;;;;;;;3.25;1.70;;;;;;;6.14;75.98;96807.91;6217623;23;20450;-79